sensor_id;sensor_type;location;lat;lon;timestamp;temperature;humidity
40123;DHT22;25832;45.490;4.912;2023-03-01T00:02:06;1.50;99.90
40123;DHT22;25832;45.490;4.912;2023-03-01T00:04:32;1.40;99.90
40123;DHT22;25832;45.490;4.912;2023-03-01T00:06:58;1.50;99.90
40123;DHT22;25832;45.490;4.912;2023-03-01T00:09:23;1.40;99.90
40123;DHT22;25832;45.490;4.912;2023-03-01T00:11:49;1.40;99.90
40123;DHT22;25832;45.490;4.912;2023-03-01T00:14:15;1.30;99.90
40123;DHT22;25832;45.490;4.912;2023-03-01T00:16:44;1.30;99.90
40123;DHT22;25832;45.490;4.912;2023-03-01T00:19:18;1.30;99.90
40123;DHT22;25832;45.490;4.912;2023-03-01T00:21:44;1.30;99.90
40123;DHT22;25832;45.490;4.912;2023-03-01T00:24:10;1.20;99.90
40123;DHT22;25832;45.490;4.912;2023-03-01T00:26:35;1.20;99.90
40123;DHT22;25832;45.490;4.912;2023-03-01T00:29:02;1.20;99.90
40123;DHT22;25832;45.490;4.912;2023-03-01T00:31:29;1.10;99.90
40123;DHT22;25832;45.490;4.912;2023-03-01T00:33:56;1.10;99.90
40123;DHT22;25832;45.490;4.912;2023-03-01T00:36:26;1.10;99.90
40123;DHT22;25832;45.490;4.912;2023-03-01T00:38:53;1.10;99.90
40123;DHT22;25832;45.490;4.912;2023-03-01T00:41:20;1.00;99.90
40123;DHT22;25832;45.490;4.912;2023-03-01T00:43:45;1.00;99.90
40123;DHT22;25832;45.490;4.912;2023-03-01T00:46:13;1.00;99.90
40123;DHT22;25832;45.490;4.912;2023-03-01T00:48:40;1.00;99.90
40123;DHT22;25832;45.490;4.912;2023-03-01T00:51:11;0.90;99.90
40123;DHT22;25832;45.490;4.912;2023-03-01T00:53:38;0.90;99.90
40123;DHT22;25832;45.490;4.912;2023-03-01T00:56:05;0.90;99.90
40123;DHT22;25832;45.490;4.912;2023-03-01T00:58:32;0.90;99.90
40123;DHT22;25832;45.490;4.912;2023-03-01T01:00:57;0.90;99.90
40123;DHT22;25832;45.490;4.912;2023-03-01T01:03:23;0.90;99.90
40123;DHT22;25832;45.490;4.912;2023-03-01T01:05:51;0.80;99.90
40123;DHT22;25832;45.490;4.912;2023-03-01T01:08:17;0.80;99.90
40123;DHT22;25832;45.490;4.912;2023-03-01T01:10:46;0.70;99.90
40123;DHT22;25832;45.490;4.912;2023-03-01T01:13:13;0.70;99.90
40123;DHT22;25832;45.490;4.912;2023-03-01T01:15:39;0.60;99.90
40123;DHT22;25832;45.490;4.912;2023-03-01T01:18:04;0.60;99.90
40123;DHT22;25832;45.490;4.912;2023-03-01T01:20:30;0.50;99.90
40123;DHT22;25832;45.490;4.912;2023-03-01T01:22:56;0.40;99.90
40123;DHT22;25832;45.490;4.912;2023-03-01T01:25:22;0.40;99.90
40123;DHT22;25832;45.490;4.912;2023-03-01T01:27:50;0.30;99.90
40123;DHT22;25832;45.490;4.912;2023-03-01T01:30:16;0.30;99.90
40123;DHT22;25832;45.490;4.912;2023-03-01T01:32:42;0.20;99.90
40123;DHT22;25832;45.490;4.912;2023-03-01T01:35:07;0.10;99.90
40123;DHT22;25832;45.490;4.912;2023-03-01T01:37:33;0.10;99.90
40123;DHT22;25832;45.490;4.912;2023-03-01T01:40:00;0.10;99.90
40123;DHT22;25832;45.490;4.912;2023-03-01T01:42:26;0.00;99.90
40123;DHT22;25832;45.490;4.912;2023-03-01T01:47:50;-0.10;99.90
40123;DHT22;25832;45.490;4.912;2023-03-01T01:50:18;-0.20;99.90
40123;DHT22;25832;45.490;4.912;2023-03-01T01:52:45;-0.20;99.90
40123;DHT22;25832;45.490;4.912;2023-03-01T01:55:15;-0.30;99.90
40123;DHT22;25832;45.490;4.912;2023-03-01T01:57:54;-0.30;99.90
40123;DHT22;25832;45.490;4.912;2023-03-01T02:00:26;-0.30;99.90
40123;DHT22;25832;45.490;4.912;2023-03-01T02:03:18;-0.40;99.90
40123;DHT22;25832;45.490;4.912;2023-03-01T02:08:11;-0.60;99.90
40123;DHT22;25832;45.490;4.912;2023-03-01T02:10:37;-0.60;99.90
40123;DHT22;25832;45.490;4.912;2023-03-01T02:13:03;-0.70;99.90
40123;DHT22;25832;45.490;4.912;2023-03-01T02:15:39;-0.80;99.90
40123;DHT22;25832;45.490;4.912;2023-03-01T02:18:06;-0.80;99.90
40123;DHT22;25832;45.490;4.912;2023-03-01T02:20:46;-0.90;99.90
40123;DHT22;25832;45.490;4.912;2023-03-01T02:23:16;-0.90;99.90
40123;DHT22;25832;45.490;4.912;2023-03-01T02:30:40;-1.00;99.90
40123;DHT22;25832;45.490;4.912;2023-03-01T02:33:26;-1.00;99.90
40123;DHT22;25832;45.490;4.912;2023-03-01T02:35:54;-1.00;99.90
40123;DHT22;25832;45.490;4.912;2023-03-01T02:38:21;-0.90;99.90
40123;DHT22;25832;45.490;4.912;2023-03-01T02:40:50;-0.90;99.90
40123;DHT22;25832;45.490;4.912;2023-03-01T02:43:18;-0.90;99.90
40123;DHT22;25832;45.490;4.912;2023-03-01T02:45:50;-0.90;99.90
40123;DHT22;25832;45.490;4.912;2023-03-01T02:48:17;-0.90;99.90
40123;DHT22;25832;45.490;4.912;2023-03-01T02:53:35;-0.90;99.90
40123;DHT22;25832;45.490;4.912;2023-03-01T02:56:04;-1.00;99.90
40123;DHT22;25832;45.490;4.912;2023-03-01T02:58:30;-0.90;99.90
40123;DHT22;25832;45.490;4.912;2023-03-01T03:00:56;-1.00;99.90
40123;DHT22;25832;45.490;4.912;2023-03-01T03:03:22;-0.90;99.90
40123;DHT22;25832;45.490;4.912;2023-03-01T03:05:48;-0.90;99.90
40123;DHT22;25832;45.490;4.912;2023-03-01T03:08:14;-0.90;99.90
40123;DHT22;25832;45.490;4.912;2023-03-01T03:10:42;-0.90;99.90
40123;DHT22;25832;45.490;4.912;2023-03-01T03:13:13;-0.80;99.90
40123;DHT22;25832;45.490;4.912;2023-03-01T03:15:40;-0.80;99.90
40123;DHT22;25832;45.490;4.912;2023-03-01T03:18:09;-0.80;99.90
40123;DHT22;25832;45.490;4.912;2023-03-01T03:20:36;-0.80;99.90
40123;DHT22;25832;45.490;4.912;2023-03-01T03:23:03;-0.80;99.90
40123;DHT22;25832;45.490;4.912;2023-03-01T03:25:30;-0.80;99.90
40123;DHT22;25832;45.490;4.912;2023-03-01T03:27:56;-0.70;99.90
40123;DHT22;25832;45.490;4.912;2023-03-01T03:30:26;-0.70;99.90
40123;DHT22;25832;45.490;4.912;2023-03-01T03:32:52;-0.70;99.90
40123;DHT22;25832;45.490;4.912;2023-03-01T03:35:24;-0.70;99.90
40123;DHT22;25832;45.490;4.912;2023-03-01T03:37:50;-0.70;99.90
40123;DHT22;25832;45.490;4.912;2023-03-01T03:40:39;-0.70;99.90
40123;DHT22;25832;45.490;4.912;2023-03-01T03:43:07;-0.70;99.90
40123;DHT22;25832;45.490;4.912;2023-03-01T03:45:34;-0.70;99.90
40123;DHT22;25832;45.490;4.912;2023-03-01T03:48:01;-0.60;99.90
40123;DHT22;25832;45.490;4.912;2023-03-01T03:50:28;-0.60;99.90
40123;DHT22;25832;45.490;4.912;2023-03-01T03:52:54;-0.70;99.90
40123;DHT22;25832;45.490;4.912;2023-03-01T03:55:19;-0.60;99.90
40123;DHT22;25832;45.490;4.912;2023-03-01T03:57:47;-0.70;99.90
40123;DHT22;25832;45.490;4.912;2023-03-01T04:00:19;-0.70;99.90
40123;DHT22;25832;45.490;4.912;2023-03-01T04:02:46;-0.70;99.90
40123;DHT22;25832;45.490;4.912;2023-03-01T04:05:14;-0.70;99.90
40123;DHT22;25832;45.490;4.912;2023-03-01T04:07:41;-0.70;99.90
40123;DHT22;25832;45.490;4.912;2023-03-01T04:10:13;-0.80;99.90
40123;DHT22;25832;45.490;4.912;2023-03-01T04:12:40;-0.80;99.90
40123;DHT22;25832;45.490;4.912;2023-03-01T04:15:07;-0.90;99.90
40123;DHT22;25832;45.490;4.912;2023-03-01T04:17:43;-0.90;99.90
40123;DHT22;25832;45.490;4.912;2023-03-01T04:20:16;-0.90;99.90
40123;DHT22;25832;45.490;4.912;2023-03-01T04:25:48;-1.00;99.90
40123;DHT22;25832;45.490;4.912;2023-03-01T04:30:51;-1.00;99.90
40123;DHT22;25832;45.490;4.912;2023-03-01T04:33:17;-1.10;99.90
40123;DHT22;25832;45.490;4.912;2023-03-01T04:35:43;-1.10;99.90
40123;DHT22;25832;45.490;4.912;2023-03-01T04:38:09;-1.20;99.90
40123;DHT22;25832;45.490;4.912;2023-03-01T04:40:34;-1.30;99.90
40123;DHT22;25832;45.490;4.912;2023-03-01T04:43:01;-1.40;99.90
40123;DHT22;25832;45.490;4.912;2023-03-01T04:45:27;-1.40;99.90
40123;DHT22;25832;45.490;4.912;2023-03-01T04:47:53;-1.50;99.90
40123;DHT22;25832;45.490;4.912;2023-03-01T04:50:20;-1.50;99.90
40123;DHT22;25832;45.490;4.912;2023-03-01T04:52:47;-1.60;99.90
40123;DHT22;25832;45.490;4.912;2023-03-01T04:55:13;-1.60;99.90
40123;DHT22;25832;45.490;4.912;2023-03-01T04:57:39;-1.70;99.90
40123;DHT22;25832;45.490;4.912;2023-03-01T05:00:08;-1.70;99.90
40123;DHT22;25832;45.490;4.912;2023-03-01T05:03:04;-1.70;99.90
40123;DHT22;25832;45.490;4.912;2023-03-01T05:05:34;-1.70;99.90
40123;DHT22;25832;45.490;4.912;2023-03-01T05:08:04;-1.70;99.90
40123;DHT22;25832;45.490;4.912;2023-03-01T05:10:31;-1.80;99.90
40123;DHT22;25832;45.490;4.912;2023-03-01T05:12:58;-1.80;99.90
40123;DHT22;25832;45.490;4.912;2023-03-01T05:15:25;-1.80;99.90
40123;DHT22;25832;45.490;4.912;2023-03-01T05:17:53;-1.90;99.90
40123;DHT22;25832;45.490;4.912;2023-03-01T05:20:20;-1.90;99.90
40123;DHT22;25832;45.490;4.912;2023-03-01T05:22:50;-1.90;99.90
40123;DHT22;25832;45.490;4.912;2023-03-01T05:25:16;-1.80;99.90
40123;DHT22;25832;45.490;4.912;2023-03-01T05:27:42;-1.80;99.90
40123;DHT22;25832;45.490;4.912;2023-03-01T05:30:09;-1.80;99.90
40123;DHT22;25832;45.490;4.912;2023-03-01T05:32:47;-1.80;99.90
40123;DHT22;25832;45.490;4.912;2023-03-01T05:35:14;-1.70;99.90
40123;DHT22;25832;45.490;4.912;2023-03-01T05:37:42;-1.70;99.90
40123;DHT22;25832;45.490;4.912;2023-03-01T05:40:10;-1.60;99.90
40123;DHT22;25832;45.490;4.912;2023-03-01T05:45:14;-1.50;99.90
40123;DHT22;25832;45.490;4.912;2023-03-01T05:47:45;-1.50;99.90
40123;DHT22;25832;45.490;4.912;2023-03-01T05:50:22;-1.40;99.90
40123;DHT22;25832;45.490;4.912;2023-03-01T05:52:51;-1.40;99.90
40123;DHT22;25832;45.490;4.912;2023-03-01T05:55:19;-1.40;99.90
40123;DHT22;25832;45.490;4.912;2023-03-01T05:57:45;-1.40;99.90
40123;DHT22;25832;45.490;4.912;2023-03-01T06:00:13;-1.40;99.90
40123;DHT22;25832;45.490;4.912;2023-03-01T06:02:39;-1.40;99.90
40123;DHT22;25832;45.490;4.912;2023-03-01T06:05:07;-1.30;99.90
40123;DHT22;25832;45.490;4.912;2023-03-01T06:07:33;-1.30;99.90
40123;DHT22;25832;45.490;4.912;2023-03-01T06:10:00;-1.20;99.90
40123;DHT22;25832;45.490;4.912;2023-03-01T06:12:29;-1.20;99.90
40123;DHT22;25832;45.490;4.912;2023-03-01T06:14:55;-1.30;99.90
40123;DHT22;25832;45.490;4.912;2023-03-01T06:17:21;-1.30;99.90
40123;DHT22;25832;45.490;4.912;2023-03-01T06:19:46;-1.20;99.90
40123;DHT22;25832;45.490;4.912;2023-03-01T06:22:12;-1.20;99.90
40123;DHT22;25832;45.490;4.912;2023-03-01T06:24:38;-1.20;99.90
40123;DHT22;25832;45.490;4.912;2023-03-01T06:27:04;-1.20;99.90
40123;DHT22;25832;45.490;4.912;2023-03-01T06:29:30;-1.20;99.90
40123;DHT22;25832;45.490;4.912;2023-03-01T06:31:56;-1.10;99.90
40123;DHT22;25832;45.490;4.912;2023-03-01T06:34:21;-1.10;99.90
40123;DHT22;25832;45.490;4.912;2023-03-01T06:36:47;-1.10;99.90
40123;DHT22;25832;45.490;4.912;2023-03-01T06:39:13;-1.00;99.90
40123;DHT22;25832;45.490;4.912;2023-03-01T06:41:38;-1.00;99.90
40123;DHT22;25832;45.490;4.912;2023-03-01T06:44:04;-1.00;99.90
40123;DHT22;25832;45.490;4.912;2023-03-01T06:46:30;-0.90;99.90
40123;DHT22;25832;45.490;4.912;2023-03-01T06:48:56;-0.80;99.90
40123;DHT22;25832;45.490;4.912;2023-03-01T06:51:21;-0.70;99.90
40123;DHT22;25832;45.490;4.912;2023-03-01T06:53:47;-0.70;99.90
40123;DHT22;25832;45.490;4.912;2023-03-01T06:56:13;-0.70;99.90
40123;DHT22;25832;45.490;4.912;2023-03-01T06:58:38;-0.60;99.90
40123;DHT22;25832;45.490;4.912;2023-03-01T07:01:08;-0.60;99.90
40123;DHT22;25832;45.490;4.912;2023-03-01T07:03:34;-0.50;99.90
40123;DHT22;25832;45.490;4.912;2023-03-01T07:05:59;-0.50;99.90
40123;DHT22;25832;45.490;4.912;2023-03-01T07:08:25;-0.50;99.90
40123;DHT22;25832;45.490;4.912;2023-03-01T07:10:58;-0.50;99.90
40123;DHT22;25832;45.490;4.912;2023-03-01T07:13:23;-0.50;99.90
40123;DHT22;25832;45.490;4.912;2023-03-01T07:15:49;-0.40;99.90
40123;DHT22;25832;45.490;4.912;2023-03-01T07:18:15;-0.40;99.90
40123;DHT22;25832;45.490;4.912;2023-03-01T07:20:41;-0.40;99.90
40123;DHT22;25832;45.490;4.912;2023-03-01T07:23:07;-0.30;99.90
40123;DHT22;25832;45.490;4.912;2023-03-01T07:25:33;-0.30;99.90
40123;DHT22;25832;45.490;4.912;2023-03-01T07:27:59;-0.30;99.90
40123;DHT22;25832;45.490;4.912;2023-03-01T07:30:25;-0.30;99.90
40123;DHT22;25832;45.490;4.912;2023-03-01T07:32:53;-0.30;99.90
40123;DHT22;25832;45.490;4.912;2023-03-01T07:35:18;-0.40;99.90
40123;DHT22;25832;45.490;4.912;2023-03-01T07:37:44;-0.30;99.90
40123;DHT22;25832;45.490;4.912;2023-03-01T07:40:10;-0.30;99.90
40123;DHT22;25832;45.490;4.912;2023-03-01T07:42:37;-0.30;99.90
40123;DHT22;25832;45.490;4.912;2023-03-01T07:45:04;-0.20;99.90
40123;DHT22;25832;45.490;4.912;2023-03-01T07:47:31;-0.20;99.90
40123;DHT22;25832;45.490;4.912;2023-03-01T07:49:57;-0.20;99.90
40123;DHT22;25832;45.490;4.912;2023-03-01T07:52:22;-0.10;99.90
40123;DHT22;25832;45.490;4.912;2023-03-01T07:54:48;-0.10;99.90
40123;DHT22;25832;45.490;4.912;2023-03-01T07:57:14;-0.10;99.90
40123;DHT22;25832;45.490;4.912;2023-03-01T07:59:39;-0.10;99.90
40123;DHT22;25832;45.490;4.912;2023-03-01T08:02:05;-0.10;99.90
40123;DHT22;25832;45.490;4.912;2023-03-01T08:04:32;-0.10;99.90
40123;DHT22;25832;45.490;4.912;2023-03-01T08:06:58;0.00;99.90
40123;DHT22;25832;45.490;4.912;2023-03-01T08:09:24;0.00;99.90
40123;DHT22;25832;45.490;4.912;2023-03-01T08:11:49;0.00;99.90
40123;DHT22;25832;45.490;4.912;2023-03-01T08:14:15;0.00;99.90
40123;DHT22;25832;45.490;4.912;2023-03-01T08:16:41;0.00;99.90
40123;DHT22;25832;45.490;4.912;2023-03-01T08:19:08;0.10;99.90
40123;DHT22;25832;45.490;4.912;2023-03-01T08:21:34;0.10;99.90
40123;DHT22;25832;45.490;4.912;2023-03-01T08:24:02;0.30;99.90
40123;DHT22;25832;45.490;4.912;2023-03-01T08:26:28;0.30;99.90
40123;DHT22;25832;45.490;4.912;2023-03-01T08:28:53;0.40;99.90
40123;DHT22;25832;45.490;4.912;2023-03-01T08:31:26;0.40;99.90
40123;DHT22;25832;45.490;4.912;2023-03-01T08:33:56;0.40;99.90
40123;DHT22;25832;45.490;4.912;2023-03-01T08:36:30;0.50;99.90
40123;DHT22;25832;45.490;4.912;2023-03-01T08:38:56;0.50;99.90
40123;DHT22;25832;45.490;4.912;2023-03-01T08:41:22;0.50;99.90
40123;DHT22;25832;45.490;4.912;2023-03-01T08:43:48;0.50;99.90
40123;DHT22;25832;45.490;4.912;2023-03-01T08:46:14;0.60;99.90
40123;DHT22;25832;45.490;4.912;2023-03-01T08:48:40;0.50;99.90
40123;DHT22;25832;45.490;4.912;2023-03-01T08:51:14;0.60;99.90
40123;DHT22;25832;45.490;4.912;2023-03-01T08:53:40;0.60;99.90
40123;DHT22;25832;45.490;4.912;2023-03-01T08:56:06;0.70;99.90
40123;DHT22;25832;45.490;4.912;2023-03-01T08:58:32;0.60;99.90
40123;DHT22;25832;45.490;4.912;2023-03-01T09:00:58;0.60;99.90
40123;DHT22;25832;45.490;4.912;2023-03-01T09:03:24;0.60;99.90
40123;DHT22;25832;45.490;4.912;2023-03-01T09:05:51;0.70;99.90
40123;DHT22;25832;45.490;4.912;2023-03-01T09:08:18;0.70;99.90
40123;DHT22;25832;45.490;4.912;2023-03-01T09:10:44;0.70;99.90
40123;DHT22;25832;45.490;4.912;2023-03-01T09:13:11;0.70;99.90
40123;DHT22;25832;45.490;4.912;2023-03-01T09:15:37;0.80;99.90
40123;DHT22;25832;45.490;4.912;2023-03-01T09:18:03;0.90;99.90
40123;DHT22;25832;45.490;4.912;2023-03-01T09:20:30;0.90;99.90
40123;DHT22;25832;45.490;4.912;2023-03-01T09:22:57;0.80;99.90
40123;DHT22;25832;45.490;4.912;2023-03-01T09:25:24;0.70;99.90
40123;DHT22;25832;45.490;4.912;2023-03-01T09:27:53;0.80;99.90
40123;DHT22;25832;45.490;4.912;2023-03-01T09:30:20;0.80;99.90
40123;DHT22;25832;45.490;4.912;2023-03-01T09:32:46;0.80;99.90
40123;DHT22;25832;45.490;4.912;2023-03-01T09:35:12;0.90;99.90
40123;DHT22;25832;45.490;4.912;2023-03-01T09:37:38;1.00;99.90
40123;DHT22;25832;45.490;4.912;2023-03-01T09:40:08;1.00;99.90
40123;DHT22;25832;45.490;4.912;2023-03-01T09:42:51;1.00;99.90
40123;DHT22;25832;45.490;4.912;2023-03-01T09:45:39;1.00;99.90
40123;DHT22;25832;45.490;4.912;2023-03-01T09:48:14;1.10;99.90
40123;DHT22;25832;45.490;4.912;2023-03-01T09:50:43;1.20;99.90
40123;DHT22;25832;45.490;4.912;2023-03-01T09:53:19;1.20;99.90
40123;DHT22;25832;45.490;4.912;2023-03-01T09:55:50;1.00;99.90
40123;DHT22;25832;45.490;4.912;2023-03-01T10:06:50;1.20;99.90
40123;DHT22;25832;45.490;4.912;2023-03-01T10:09:17;1.30;99.90
40123;DHT22;25832;45.490;4.912;2023-03-01T10:11:52;1.40;99.90
40123;DHT22;25832;45.490;4.912;2023-03-01T10:14:39;1.50;99.90
40123;DHT22;25832;45.490;4.912;2023-03-01T10:17:23;1.50;99.90
40123;DHT22;25832;45.490;4.912;2023-03-01T10:19:50;1.50;99.90
40123;DHT22;25832;45.490;4.912;2023-03-01T10:22:21;1.50;99.90
40123;DHT22;25832;45.490;4.912;2023-03-01T10:24:47;1.50;99.90
40123;DHT22;25832;45.490;4.912;2023-03-01T10:27:24;1.50;99.90
40123;DHT22;25832;45.490;4.912;2023-03-01T10:32:29;1.60;99.90
40123;DHT22;25832;45.490;4.912;2023-03-01T10:34:54;1.60;99.90
40123;DHT22;25832;45.490;4.912;2023-03-01T10:37:21;1.50;99.90
40123;DHT22;25832;45.490;4.912;2023-03-01T10:40:08;1.50;99.90
40123;DHT22;25832;45.490;4.912;2023-03-01T10:42:48;1.40;99.90
40123;DHT22;25832;45.490;4.912;2023-03-01T10:48:23;1.20;99.90
40123;DHT22;25832;45.490;4.912;2023-03-01T10:51:12;1.20;99.90
40123;DHT22;25832;45.490;4.912;2023-03-01T10:53:42;1.20;99.90
40123;DHT22;25832;45.490;4.912;2023-03-01T10:56:10;1.30;99.90
40123;DHT22;25832;45.490;4.912;2023-03-01T10:58:39;1.40;99.90
40123;DHT22;25832;45.490;4.912;2023-03-01T11:03:38;1.50;99.90
40123;DHT22;25832;45.490;4.912;2023-03-01T11:18:57;1.80;99.90
40123;DHT22;25832;45.490;4.912;2023-03-01T11:21:25;1.90;99.90
40123;DHT22;25832;45.490;4.912;2023-03-01T11:23:52;2.00;99.90
40123;DHT22;25832;45.490;4.912;2023-03-01T11:26:18;2.10;99.90
40123;DHT22;25832;45.490;4.912;2023-03-01T11:28:49;2.30;99.90
40123;DHT22;25832;45.490;4.912;2023-03-01T11:31:16;2.40;99.90
40123;DHT22;25832;45.490;4.912;2023-03-01T11:33:56;2.40;99.90
40123;DHT22;25832;45.490;4.912;2023-03-01T11:36:35;2.40;99.90
40123;DHT22;25832;45.490;4.912;2023-03-01T11:39:19;2.60;99.90
40123;DHT22;25832;45.490;4.912;2023-03-01T11:41:49;2.60;99.90
40123;DHT22;25832;45.490;4.912;2023-03-01T11:44:25;2.70;99.90
40123;DHT22;25832;45.490;4.912;2023-03-01T11:53:16;2.90;99.60
40123;DHT22;25832;45.490;4.912;2023-03-01T11:55:52;2.80;99.90
40123;DHT22;25832;45.490;4.912;2023-03-01T12:06:43;3.00;99.60
40123;DHT22;25832;45.490;4.912;2023-03-01T12:09:22;3.10;99.90
40123;DHT22;25832;45.490;4.912;2023-03-01T12:15:06;3.30;99.30
40123;DHT22;25832;45.490;4.912;2023-03-01T12:23:25;3.30;99.00
40123;DHT22;25832;45.490;4.912;2023-03-01T12:26:10;3.30;99.40
40123;DHT22;25832;45.490;4.912;2023-03-01T12:42:14;3.20;99.30
40123;DHT22;25832;45.490;4.912;2023-03-01T12:47:26;3.20;99.80
40123;DHT22;25832;45.490;4.912;2023-03-01T12:50:03;3.20;99.90
40123;DHT22;25832;45.490;4.912;2023-03-01T12:52:38;3.30;99.90
40123;DHT22;25832;45.490;4.912;2023-03-01T13:00:45;3.30;99.40
40123;DHT22;25832;45.490;4.912;2023-03-01T13:03:26;3.30;99.30
40123;DHT22;25832;45.490;4.912;2023-03-01T13:06:30;3.20;99.60
40123;DHT22;25832;45.490;4.912;2023-03-01T13:11:34;3.40;99.20
40123;DHT22;25832;45.490;4.912;2023-03-01T13:16:53;3.50;99.50
40123;DHT22;25832;45.490;4.912;2023-03-01T13:19:24;3.50;99.80
40123;DHT22;25832;45.490;4.912;2023-03-01T13:21:53;3.60;99.20
40123;DHT22;25832;45.490;4.912;2023-03-01T13:24:37;3.50;99.10
40123;DHT22;25832;45.490;4.912;2023-03-01T13:34:47;3.70;99.90
40123;DHT22;25832;45.490;4.912;2023-03-01T13:37:27;3.80;99.90
40123;DHT22;25832;45.490;4.912;2023-03-01T13:39:56;3.90;99.10
40123;DHT22;25832;45.490;4.912;2023-03-01T13:42:36;3.90;99.50
40123;DHT22;25832;45.490;4.912;2023-03-01T13:47:58;3.90;98.70
40123;DHT22;25832;45.490;4.912;2023-03-01T13:50:29;3.90;98.80
40123;DHT22;25832;45.490;4.912;2023-03-01T13:52:59;3.90;99.00
40123;DHT22;25832;45.490;4.912;2023-03-01T13:55:58;3.80;99.10
40123;DHT22;25832;45.490;4.912;2023-03-01T13:58:32;3.80;99.70
40123;DHT22;25832;45.490;4.912;2023-03-01T14:01:03;3.80;99.00
40123;DHT22;25832;45.490;4.912;2023-03-01T14:03:31;3.80;99.70
40123;DHT22;25832;45.490;4.912;2023-03-01T14:08:28;3.80;98.80
40123;DHT22;25832;45.490;4.912;2023-03-01T14:11:56;3.80;98.70
40123;DHT22;25832;45.490;4.912;2023-03-01T14:17:21;3.70;98.80
40123;DHT22;25832;45.490;4.912;2023-03-01T14:19:59;3.70;99.50
40123;DHT22;25832;45.490;4.912;2023-03-01T14:22:31;3.70;98.90
40123;DHT22;25832;45.490;4.912;2023-03-01T14:25:16;3.70;99.50
40123;DHT22;25832;45.490;4.912;2023-03-01T14:27:42;3.70;99.20
40123;DHT22;25832;45.490;4.912;2023-03-01T14:30:16;3.70;98.80
40123;DHT22;25832;45.490;4.912;2023-03-01T14:32:53;3.60;99.10
40123;DHT22;25832;45.490;4.912;2023-03-01T14:35:24;3.60;99.20
40123;DHT22;25832;45.490;4.912;2023-03-01T14:37:50;3.50;99.00
40123;DHT22;25832;45.490;4.912;2023-03-01T14:40:27;3.60;99.20
40123;DHT22;25832;45.490;4.912;2023-03-01T14:42:53;3.60;99.30
40123;DHT22;25832;45.490;4.912;2023-03-01T14:45:20;3.60;99.50
40123;DHT22;25832;45.490;4.912;2023-03-01T14:47:46;3.60;99.40
40123;DHT22;25832;45.490;4.912;2023-03-01T14:52:44;3.60;99.40
40123;DHT22;25832;45.490;4.912;2023-03-01T14:55:21;3.70;99.30
40123;DHT22;25832;45.490;4.912;2023-03-01T14:57:51;3.70;99.20
40123;DHT22;25832;45.490;4.912;2023-03-01T15:00:26;3.70;99.00
40123;DHT22;25832;45.490;4.912;2023-03-01T15:02:54;3.80;99.30
40123;DHT22;25832;45.490;4.912;2023-03-01T15:05:32;3.80;98.70
40123;DHT22;25832;45.490;4.912;2023-03-01T15:08:00;3.90;99.30
40123;DHT22;25832;45.490;4.912;2023-03-01T15:10:29;3.90;98.70
40123;DHT22;25832;45.490;4.912;2023-03-01T15:12:55;3.90;98.70
40123;DHT22;25832;45.490;4.912;2023-03-01T15:15:32;3.80;99.10
40123;DHT22;25832;45.490;4.912;2023-03-01T15:18:02;3.80;99.10
40123;DHT22;25832;45.490;4.912;2023-03-01T15:20:29;3.90;99.60
40123;DHT22;25832;45.490;4.912;2023-03-01T15:22:57;3.90;99.90
40123;DHT22;25832;45.490;4.912;2023-03-01T15:25:25;3.90;99.70
40123;DHT22;25832;45.490;4.912;2023-03-01T15:27:53;4.00;99.10
40123;DHT22;25832;45.490;4.912;2023-03-01T15:30:25;4.00;98.90
40123;DHT22;25832;45.490;4.912;2023-03-01T15:35:49;4.00;99.40
40123;DHT22;25832;45.490;4.912;2023-03-01T15:40:53;3.90;99.70
40123;DHT22;25832;45.490;4.912;2023-03-01T15:48:47;3.90;99.20
40123;DHT22;25832;45.490;4.912;2023-03-01T15:51:15;4.00;99.50
40123;DHT22;25832;45.490;4.912;2023-03-01T15:53:43;3.90;99.30
40123;DHT22;25832;45.490;4.912;2023-03-01T15:56:12;4.00;99.20
40123;DHT22;25832;45.490;4.912;2023-03-01T15:58:37;3.90;99.30
40123;DHT22;25832;45.490;4.912;2023-03-01T16:01:10;3.80;99.60
40123;DHT22;25832;45.490;4.912;2023-03-01T16:03:38;3.80;99.70
40123;DHT22;25832;45.490;4.912;2023-03-01T16:06:03;3.80;99.10
40123;DHT22;25832;45.490;4.912;2023-03-01T16:08:29;3.70;99.10
40123;DHT22;25832;45.490;4.912;2023-03-01T16:10:55;3.80;99.90
40123;DHT22;25832;45.490;4.912;2023-03-01T16:13:20;3.80;99.90
40123;DHT22;25832;45.490;4.912;2023-03-01T16:15:46;3.60;99.80
40123;DHT22;25832;45.490;4.912;2023-03-01T16:18:12;3.60;99.90
40123;DHT22;25832;45.490;4.912;2023-03-01T16:20:37;3.60;99.90
40123;DHT22;25832;45.490;4.912;2023-03-01T16:23:07;3.50;99.90
40123;DHT22;25832;45.490;4.912;2023-03-01T16:25:34;3.50;99.90
40123;DHT22;25832;45.490;4.912;2023-03-01T16:28:00;3.60;99.90
40123;DHT22;25832;45.490;4.912;2023-03-01T16:30:30;3.60;99.90
40123;DHT22;25832;45.490;4.912;2023-03-01T16:32:56;3.60;99.90
40123;DHT22;25832;45.490;4.912;2023-03-01T16:35:21;3.60;99.90
40123;DHT22;25832;45.490;4.912;2023-03-01T16:37:48;3.70;99.90
40123;DHT22;25832;45.490;4.912;2023-03-01T16:40:23;3.60;99.90
40123;DHT22;25832;45.490;4.912;2023-03-01T16:42:50;3.70;99.90
40123;DHT22;25832;45.490;4.912;2023-03-01T16:45:17;3.80;99.90
40123;DHT22;25832;45.490;4.912;2023-03-01T16:47:43;3.80;99.70
40123;DHT22;25832;45.490;4.912;2023-03-01T16:50:09;3.80;99.80
40123;DHT22;25832;45.490;4.912;2023-03-01T16:52:35;3.80;99.70
40123;DHT22;25832;45.490;4.912;2023-03-01T16:55:06;3.70;99.90
40123;DHT22;25832;45.490;4.912;2023-03-01T16:57:36;3.70;99.90
40123;DHT22;25832;45.490;4.912;2023-03-01T17:00:04;3.80;99.90
40123;DHT22;25832;45.490;4.912;2023-03-01T17:02:35;3.70;99.90
40123;DHT22;25832;45.490;4.912;2023-03-01T17:05:02;3.70;99.90
40123;DHT22;25832;45.490;4.912;2023-03-01T17:07:31;3.80;99.90
40123;DHT22;25832;45.490;4.912;2023-03-01T17:10:03;3.80;99.80
40123;DHT22;25832;45.490;4.912;2023-03-01T17:12:29;3.70;99.90
40123;DHT22;25832;45.490;4.912;2023-03-01T17:14:55;3.70;99.90
40123;DHT22;25832;45.490;4.912;2023-03-01T17:17:21;3.70;99.90
40123;DHT22;25832;45.490;4.912;2023-03-01T17:19:46;3.70;99.90
40123;DHT22;25832;45.490;4.912;2023-03-01T17:22:12;3.60;99.90
40123;DHT22;25832;45.490;4.912;2023-03-01T17:24:39;3.60;99.90
40123;DHT22;25832;45.490;4.912;2023-03-01T17:27:06;3.60;99.90
40123;DHT22;25832;45.490;4.912;2023-03-01T17:29:32;3.60;99.90
40123;DHT22;25832;45.490;4.912;2023-03-01T17:31:58;3.50;99.90
40123;DHT22;25832;45.490;4.912;2023-03-01T17:34:24;3.50;99.90
40123;DHT22;25832;45.490;4.912;2023-03-01T17:36:50;3.50;99.90
40123;DHT22;25832;45.490;4.912;2023-03-01T17:39:17;3.50;99.90
40123;DHT22;25832;45.490;4.912;2023-03-01T17:41:45;3.50;99.90
40123;DHT22;25832;45.490;4.912;2023-03-01T17:44:11;3.50;99.90
40123;DHT22;25832;45.490;4.912;2023-03-01T17:46:36;3.50;99.90
40123;DHT22;25832;45.490;4.912;2023-03-01T17:49:03;3.50;99.90
40123;DHT22;25832;45.490;4.912;2023-03-01T17:51:28;3.50;99.90
40123;DHT22;25832;45.490;4.912;2023-03-01T17:53:54;3.50;99.90
40123;DHT22;25832;45.490;4.912;2023-03-01T17:56:20;3.50;99.90
40123;DHT22;25832;45.490;4.912;2023-03-01T17:58:45;3.40;99.90
40123;DHT22;25832;45.490;4.912;2023-03-01T18:01:16;3.50;99.90
40123;DHT22;25832;45.490;4.912;2023-03-01T18:03:43;3.50;99.90